Time;durP1;ratioP1;P1;durP2;ratioP2;P2;SDS_P1;SDS_P2;PMS_P1;PMS_P2;Temp;Humidity;BMP_temperature;BMP_pressure;BME280_temperature;BME280_humidity;BME280_pressure;Samples;Min_cycle;Max_cycle;Signal;HPM_P1;HPM_P2
2023/12/27 00:01:02;;;;;;;55.30;1.90;;;;;;;;;;5065919;28;20467;-70
2023/12/27 00:03:29;;;;;;;55.70;1.90;;;;;;;;;;5065428;28;20478;-71
2023/12/27 00:05:56;;;;;;;55.50;2.10;;;;;;;;;;5052346;28;20456;-70
2023/12/27 00:08:23;;;;;;;55.60;1.90;;;;;;;;;;5045393;28;20486;-70
2023/12/27 00:10:50;;;;;;;55.40;2.20;;;;;;;;;;5046014;28;20559;-69
2023/12/27 00:13:18;;;;;;;55.87;2.97;;;;;;;;;;5045426;28;20536;-70
2023/12/27 00:15:46;;;;;;;55.57;2.20;;;;;;;;;;5057512;28;20462;-71
2023/12/27 00:18:16;;;;;;;56.87;2.83;;;;;;;;;;5065612;28;20517;-70
2023/12/27 00:20:43;;;;;;;55.60;1.90;;;;;;;;;;5065161;28;20444;-71
2023/12/27 00:23:10;;;;;;;54.87;2.00;;;;;;;;;;5064616;28;20582;-70
2023/12/27 00:25:37;;;;;;;55.73;1.97;;;;;;;;;;5064099;28;20447;-70
2023/12/27 00:28:05;;;;;;;55.87;2.40;;;;;;;;;;5064357;28;20561;-70
2023/12/27 00:30:33;;;;;;;55.37;1.87;;;;;;;;;;5065040;28;20882;-71
2023/12/27 00:33:01;;;;;;;55.70;2.40;;;;;;;;;;5064939;28;20849;-71
2023/12/27 00:35:29;;;;;;;55.57;2.33;;;;;;;;;;5064851;28;20828;-70
2023/12/27 00:37:56;;;;;;;55.50;2.10;;;;;;;;;;5064087;28;20555;-70
2023/12/27 00:40:23;;;;;;;55.23;1.90;;;;;;;;;;5064221;28;20487;-70
2023/12/27 00:42:50;;;;;;;55.80;2.10;;;;;;;;;;5044451;28;20544;-71
2023/12/27 00:45:17;;;;;;;55.70;1.90;;;;;;;;;;5044300;28;20544;-70
2023/12/27 00:47:47;;;;;;;55.70;2.00;;;;;;;;;;5044181;28;20505;-69
2023/12/27 00:50:14;;;;;;;55.63;2.10;;;;;;;;;;5044484;28;20489;-70
2023/12/27 00:52:41;;;;;;;55.60;1.83;;;;;;;;;;5043575;28;20562;-70
2023/12/27 00:55:09;;;;;;;55.67;2.10;;;;;;;;;;5044459;28;20522;-70
2023/12/27 00:57:36;;;;;;;55.60;1.90;;;;;;;;;;5043641;28;20519;-70
2023/12/27 01:00:03;;;;;;;55.43;2.30;;;;;;;;;;5042789;28;20523;-70
2023/12/27 01:02:31;;;;;;;55.27;1.97;;;;;;;;;;5043866;28;21030;-70
2023/12/27 01:04:59;;;;;;;55.60;2.10;;;;;;;;;;5044375;28;20541;-71
2023/12/27 01:07:26;;;;;;;55.60;2.13;;;;;;;;;;5043629;28;20487;-70
2023/12/27 01:09:53;;;;;;;55.47;2.00;;;;;;;;;;5043586;28;20571;-70
2023/12/27 01:12:21;;;;;;;55.80;2.20;;;;;;;;;;5044006;28;20502;-70
2023/12/27 01:14:48;;;;;;;55.60;2.40;;;;;;;;;;5054777;28;20507;-70
2023/12/27 01:17:15;;;;;;;55.50;2.20;;;;;;;;;;5063118;28;20518;-69
2023/12/27 01:19:42;;;;;;;55.40;2.30;;;;;;;;;;5064041;28;20572;-70
2023/12/27 01:22:10;;;;;;;55.57;1.90;;;;;;;;;;5063129;28;20546;-70
2023/12/27 01:24:38;;;;;;;56.10;2.40;;;;;;;;;;5063059;28;20511;-71
2023/12/27 01:27:06;;;;;;;55.80;2.30;;;;;;;;;;5062908;28;20509;-71
2023/12/27 01:29:33;;;;;;;55.70;1.90;;;;;;;;;;5063313;28;20451;-70
2023/12/27 01:32:00;;;;;;;55.70;1.90;;;;;;;;;;5062613;28;20533;-70
2023/12/27 01:34:27;;;;;;;55.90;2.30;;;;;;;;;;5063076;28;20522;-70
2023/12/27 01:36:54;;;;;;;54.77;1.80;;;;;;;;;;5063092;28;20475;-70
2023/12/27 01:39:22;;;;;;;54.87;1.93;;;;;;;;;;5062976;28;21033;-70
2023/12/27 01:41:49;;;;;;;55.53;2.10;;;;;;;;;;5063556;28;20460;-70
2023/12/27 01:44:16;;;;;;;55.50;2.20;;;;;;;;;;5063130;28;20459;-70
2023/12/27 01:46:44;;;;;;;55.07;2.03;;;;;;;;;;5062966;28;20523;-69
2023/12/27 01:49:11;;;;;;;55.77;2.50;;;;;;;;;;5063233;28;20521;-70
2023/12/27 01:51:38;;;;;;;56.40;2.80;;;;;;;;;;5063216;28;20486;-70
2023/12/27 01:54:06;;;;;;;55.33;2.70;;;;;;;;;;5067281;28;20485;-69
2023/12/27 01:56:34;;;;;;;55.70;2.20;;;;;;;;;;5067697;28;20484;-70
2023/12/27 01:59:01;;;;;;;55.50;2.20;;;;;;;;;;5068179;28;20477;-70
2023/12/27 02:01:29;;;;;;;55.40;2.20;;;;;;;;;;5066908;28;20445;-70
2023/12/27 02:03:56;;;;;;;55.37;2.40;;;;;;;;;;5066908;28;20458;-69
2023/12/27 02:06:24;;;;;;;55.57;2.20;;;;;;;;;;5066243;28;20512;-71
2023/12/27 02:08:51;;;;;;;55.67;2.40;;;;;;;;;;5065601;28;20546;-71
2023/12/27 02:11:18;;;;;;;55.80;2.00;;;;;;;;;;5065025;28;20478;-70
2023/12/27 02:13:47;;;;;;;55.77;2.30;;;;;;;;;;5063536;28;20479;-70
2023/12/27 02:16:16;;;;;;;55.90;2.53;;;;;;;;;;5064987;28;20846;-70
2023/12/27 02:18:43;;;;;;;55.90;2.60;;;;;;;;;;5065826;28;20451;-70
2023/12/27 02:21:10;;;;;;;55.77;2.40;;;;;;;;;;5066145;28;20523;-69
2023/12/27 02:23:38;;;;;;;56.37;2.80;;;;;;;;;;5064612;28;20975;-70
2023/12/27 02:26:08;;;;;;;56.00;2.70;;;;;;;;;;5067122;28;20488;-70
2023/12/27 02:28:35;;;;;;;55.70;2.40;;;;;;;;;;5065132;28;20576;-70
2023/12/27 02:31:02;;;;;;;55.90;2.50;;;;;;;;;;5064487;28;20541;-70
2023/12/27 02:33:29;;;;;;;55.67;2.20;;;;;;;;;;5065808;28;20480;-70
2023/12/27 02:35:56;;;;;;;55.80;2.33;;;;;;;;;;5066539;28;20455;-69
2023/12/27 02:38:23;;;;;;;55.57;2.30;;;;;;;;;;5066556;28;20482;-70
2023/12/27 02:40:50;;;;;;;55.70;2.20;;;;;;;;;;5066193;28;20525;-69
2023/12/27 02:43:19;;;;;;;56.30;2.37;;;;;;;;;;5065522;28;20555;-71
2023/12/27 02:45:46;;;;;;;55.80;2.10;;;;;;;;;;5065721;28;20482;-70
2023/12/27 02:48:13;;;;;;;55.70;2.27;;;;;;;;;;5065861;28;20491;-70
2023/12/27 02:50:44;;;;;;;55.73;2.40;;;;;;;;;;5066329;28;20547;-70
2023/12/27 02:53:11;;;;;;;55.83;2.53;;;;;;;;;;5065966;28;20853;-70
2023/12/27 02:55:38;;;;;;;56.60;3.53;;;;;;;;;;5065531;28;20466;-70
2023/12/27 02:58:05;;;;;;;55.80;2.43;;;;;;;;;;5066295;28;20486;-70
2023/12/27 03:00:37;;;;;;;55.47;2.60;;;;;;;;;;5065330;28;20479;-71
2023/12/27 03:03:04;;;;;;;56.00;2.67;;;;;;;;;;5065055;28;20471;-71
2023/12/27 03:05:32;;;;;;;55.80;2.37;;;;;;;;;;5065739;28;20464;-70
2023/12/27 03:07:59;;;;;;;55.43;2.20;;;;;;;;;;5065873;28;20502;-70
2023/12/27 03:10:26;;;;;;;55.60;2.20;;;;;;;;;;5065667;28;20527;-70
2023/12/27 03:12:53;;;;;;;55.60;2.33;;;;;;;;;;5064518;28;20542;-69
2023/12/27 03:15:20;;;;;;;55.60;2.50;;;;;;;;;;5056520;28;20882;-71
2023/12/27 03:17:49;;;;;;;56.97;2.93;;;;;;;;;;5065968;28;20551;-70
2023/12/27 03:20:16;;;;;;;55.60;2.43;;;;;;;;;;5066576;28;20473;-70
2023/12/27 03:22:43;;;;;;;55.70;2.30;;;;;;;;;;5065293;28;20509;-70
2023/12/27 03:25:10;;;;;;;55.57;2.30;;;;;;;;;;5066181;28;20486;-69
2023/12/27 03:27:37;;;;;;;55.77;2.53;;;;;;;;;;5065647;28;20550;-70
2023/12/27 03:30:04;;;;;;;55.63;2.50;;;;;;;;;;5064771;28;20585;-70
2023/12/27 03:32:32;;;;;;;55.73;2.40;;;;;;;;;;5065414;28;20548;-69
2023/12/27 03:35:00;;;;;;;55.70;2.00;;;;;;;;;;5065472;28;20477;-70
2023/12/27 03:37:27;;;;;;;55.60;2.47;;;;;;;;;;5065209;28;20658;-70
2023/12/27 03:39:54;;;;;;;55.97;3.07;;;;;;;;;;5065435;28;20540;-70
2023/12/27 03:42:21;;;;;;;55.60;2.37;;;;;;;;;;5065393;28;20553;-70
2023/12/27 03:44:52;;;;;;;55.83;2.70;;;;;;;;;;5065201;28;20451;-71
2023/12/27 03:47:19;;;;;;;55.63;2.40;;;;;;;;;;5065154;28;20516;-70
2023/12/27 03:49:46;;;;;;;55.67;2.10;;;;;;;;;;5058534;28;20499;-71
2023/12/27 03:52:15;;;;;;;56.20;3.33;;;;;;;;;;5050796;28;20470;-70
2023/12/27 03:54:42;;;;;;;55.90;2.90;;;;;;;;;;5053487;28;20998;-70
2023/12/27 03:57:09;;;;;;;55.77;2.50;;;;;;;;;;5044819;28;20967;-70
2023/12/27 03:59:38;;;;;;;55.87;2.40;;;;;;;;;;5047608;28;20541;-70
2023/12/27 04:02:05;;;;;;;55.77;2.60;;;;;;;;;;5057432;28;20475;-70
2023/12/27 04:04:33;;;;;;;55.63;2.40;;;;;;;;;;5047459;28;20498;-70
2023/12/27 04:07:00;;;;;;;55.60;2.40;;;;;;;;;;5045252;28;20966;-71
2023/12/27 04:09:29;;;;;;;55.57;2.30;;;;;;;;;;5044775;28;20578;-70
2023/12/27 04:11:56;;;;;;;55.80;2.20;;;;;;;;;;5043696;28;20950;-69
2023/12/27 04:14:23;;;;;;;55.50;2.40;;;;;;;;;;5051022;28;20547;-71
2023/12/27 04:16:50;;;;;;;55.63;2.30;;;;;;;;;;5055061;28;20528;-70
2023/12/27 04:19:17;;;;;;;55.47;2.20;;;;;;;;;;5042198;28;20538;-70
2023/12/27 04:21:44;;;;;;;55.47;2.40;;;;;;;;;;5041005;28;20885;-69
2023/12/27 04:24:12;;;;;;;55.57;2.23;;;;;;;;;;5040992;28;20519;-70
2023/12/27 04:26:41;;;;;;;55.37;2.20;;;;;;;;;;5041324;28;20443;-69
2023/12/27 04:29:08;;;;;;;55.60;2.20;;;;;;;;;;5041401;28;20951;-70
2023/12/27 04:31:35;;;;;;;55.57;2.20;;;;;;;;;;5040590;28;20899;-70
2023/12/27 04:34:02;;;;;;;55.57;2.53;;;;;;;;;;5045600;28;20553;-70
2023/12/27 04:36:29;;;;;;;55.50;2.20;;;;;;;;;;5044951;28;20479;-70
2023/12/27 04:38:56;;;;;;;55.77;2.50;;;;;;;;;;5052606;28;20503;-70
2023/12/27 04:41:23;;;;;;;55.40;2.40;;;;;;;;;;5044047;28;20503;-71
2023/12/27 04:43:52;;;;;;;55.47;2.50;;;;;;;;;;5042849;28;20559;-70
2023/12/27 04:46:19;;;;;;;55.67;2.27;;;;;;;;;;5043482;28;20975;-69
2023/12/27 04:48:46;;;;;;;55.70;2.63;;;;;;;;;;5042741;28;20556;-70
2023/12/27 04:51:14;;;;;;;55.57;2.33;;;;;;;;;;5043825;28;20476;-70
2023/12/27 04:53:42;;;;;;;56.00;3.23;;;;;;;;;;5043511;28;21030;-70
2023/12/27 04:56:09;;;;;;;55.57;2.30;;;;;;;;;;5043397;28;20479;-70
2023/12/27 04:58:36;;;;;;;55.70;2.27;;;;;;;;;;5044045;28;20543;-71
2023/12/27 05:01:06;;;;;;;55.80;2.60;;;;;;;;;;5043677;28;20487;-70
2023/12/27 05:03:35;;;;;;;55.90;2.90;;;;;;;;;;5043085;28;20475;-70
2023/12/27 05:06:02;;;;;;;55.47;2.47;;;;;;;;;;5043620;28;20532;-70
2023/12/27 05:08:29;;;;;;;55.37;2.40;;;;;;;;;;5043745;28;20447;-71
2023/12/27 05:10:56;;;;;;;55.30;2.30;;;;;;;;;;5043621;28;20444;-71
2023/12/27 05:13:23;;;;;;;55.50;2.27;;;;;;;;;;5043167;28;20546;-70
2023/12/27 05:15:50;;;;;;;55.43;2.63;;;;;;;;;;5042204;28;20559;-70
2023/12/27 05:18:19;;;;;;;55.43;2.20;;;;;;;;;;5043230;28;20492;-71
2023/12/27 05:20:46;;;;;;;55.47;2.20;;;;;;;;;;5043730;28;20492;-70
2023/12/27 05:23:13;;;;;;;55.60;2.17;;;;;;;;;;5048108;28;20509;-71
2023/12/27 05:25:40;;;;;;;55.70;2.80;;;;;;;;;;5052651;28;20454;-71
2023/12/27 05:28:07;;;;;;;55.70;2.30;;;;;;;;;;5050297;28;20555;-71
2023/12/27 05:30:34;;;;;;;55.57;2.20;;;;;;;;;;5042518;28;20551;-70
2023/12/27 05:33:01;;;;;;;55.47;2.10;;;;;;;;;;5042972;28;20538;-70
2023/12/27 05:35:30;;;;;;;59.70;3.27;;;;;;;;;;5042598;28;20475;-71
2023/12/27 05:37:57;;;;;;;55.60;2.40;;;;;;;;;;5042277;28;20531;-71
2023/12/27 05:40:24;;;;;;;55.67;2.20;;;;;;;;;;5057620;28;20481;-70
2023/12/27 05:42:51;;;;;;;55.57;2.20;;;;;;;;;;5043845;28;20539;-71
2023/12/27 05:45:18;;;;;;;55.70;2.30;;;;;;;;;;5042788;28;20543;-70
2023/12/27 05:47:45;;;;;;;55.60;2.40;;;;;;;;;;5043000;28;20541;-71
2023/12/27 05:50:12;;;;;;;55.67;2.23;;;;;;;;;;5042989;28;20601;-69
2023/12/27 05:52:41;;;;;;;56.20;2.60;;;;;;;;;;5042439;28;20487;-70
2023/12/27 05:55:08;;;;;;;55.23;2.00;;;;;;;;;;5042571;28;20520;-70
2023/12/27 05:57:36;;;;;;;55.60;2.40;;;;;;;;;;5059176;28;20537;-71
2023/12/27 06:00:03;;;;;;;55.70;2.60;;;;;;;;;;5043183;28;20527;-71
2023/12/27 06:02:32;;;;;;;56.00;2.57;;;;;;;;;;5042714;28;20502;-70
2023/12/27 06:04:59;;;;;;;56.10;3.27;;;;;;;;;;5042570;28;20448;-71
2023/12/27 06:07:26;;;;;;;55.97;2.70;;;;;;;;;;5042755;28;20539;-71
2023/12/27 06:09:54;;;;;;;55.37;2.40;;;;;;;;;;5042533;28;20558;-71
2023/12/27 06:12:22;;;;;;;55.43;2.50;;;;;;;;;;5042632;28;20543;-71
2023/12/27 06:14:49;;;;;;;56.10;2.70;;;;;;;;;;5042945;28;20474;-70
2023/12/27 06:17:16;;;;;;;55.73;2.60;;;;;;;;;;5042907;28;20523;-71
2023/12/27 06:19:43;;;;;;;55.70;2.70;;;;;;;;;;5042741;28;20483;-71
2023/12/27 06:22:10;;;;;;;55.47;2.20;;;;;;;;;;5042498;28;20489;-71
2023/12/27 06:24:37;;;;;;;55.60;2.40;;;;;;;;;;5042511;28;20512;-71
2023/12/27 06:27:06;;;;;;;55.83;2.50;;;;;;;;;;5042905;28;20472;-71
2023/12/27 06:29:33;;;;;;;55.70;2.43;;;;;;;;;;5042114;28;20870;-71
2023/12/27 06:32:02;;;;;;;55.67;2.10;;;;;;;;;;5042915;28;20578;-71
2023/12/27 06:34:29;;;;;;;55.93;2.63;;;;;;;;;;5050168;28;20454;-71
2023/12/27 06:36:56;;;;;;;56.10;2.97;;;;;;;;;;5042960;28;20523;-71
2023/12/27 06:39:24;;;;;;;55.90;2.57;;;;;;;;;;5046307;28;20482;-70
2023/12/27 06:41:51;;;;;;;55.53;2.30;;;;;;;;;;5046740;28;20510;-71
2023/12/27 06:44:19;;;;;;;55.63;2.47;;;;;;;;;;5046434;28;20452;-71
2023/12/27 06:46:46;;;;;;;55.77;2.43;;;;;;;;;;5046902;28;20461;-71
2023/12/27 06:49:13;;;;;;;55.67;2.37;;;;;;;;;;5047043;28;20495;-71
2023/12/27 06:51:40;;;;;;;55.47;2.30;;;;;;;;;;5046951;28;20523;-71
2023/12/27 06:54:07;;;;;;;55.50;2.43;;;;;;;;;;5046027;28;20444;-71
2023/12/27 06:56:38;;;;;;;56.77;4.07;;;;;;;;;;5046600;28;21012;-70
2023/12/27 06:59:05;;;;;;;55.70;2.40;;;;;;;;;;5058630;28;20481;-70
2023/12/27 07:01:34;;;;;;;55.80;2.37;;;;;;;;;;5067114;28;20478;-70
2023/12/27 07:04:02;;;;;;;56.30;3.07;;;;;;;;;;5066404;28;20545;-71
2023/12/27 07:06:29;;;;;;;55.60;2.60;;;;;;;;;;5051646;28;20578;-71
2023/12/27 07:08:56;;;;;;;55.97;2.57;;;;;;;;;;5046668;28;20450;-71
2023/12/27 07:11:25;;;;;;;55.60;2.30;;;;;;;;;;5045635;28;20512;-70
2023/12/27 07:13:52;;;;;;;55.97;2.70;;;;;;;;;;5045390;28;20477;-70
2023/12/27 07:16:19;;;;;;;55.70;2.37;;;;;;;;;;5046979;28;20526;-71
2023/12/27 07:18:47;;;;;;;55.80;2.60;;;;;;;;;;5046575;28;20531;-71
2023/12/27 07:21:15;;;;;;;56.27;3.00;;;;;;;;;;5046801;28;20448;-71
2023/12/27 07:23:42;;;;;;;56.37;3.07;;;;;;;;;;5046063;28;20476;-69
2023/12/27 07:26:12;;;;;;;55.57;2.53;;;;;;;;;;5046718;28;20444;-71
2023/12/27 07:28:39;;;;;;;55.57;2.40;;;;;;;;;;5047265;28;20573;-71
2023/12/27 07:31:06;;;;;;;56.40;3.90;;;;;;;;;;5058618;28;20481;-70
2023/12/27 07:33:36;;;;;;;55.97;2.87;;;;;;;;;;5065970;28;20837;-71
2023/12/27 07:36:05;;;;;;;55.97;2.70;;;;;;;;;;5066023;28;20441;-71
2023/12/27 07:38:32;;;;;;;55.80;2.60;;;;;;;;;;5067385;28;20462;-70
2023/12/27 07:40:59;;;;;;;55.80;2.30;;;;;;;;;;5067029;28;20454;-71
2023/12/27 07:43:26;;;;;;;55.60;2.50;;;;;;;;;;5066450;28;20499;-70
2023/12/27 07:45:53;;;;;;;55.37;2.40;;;;;;;;;;5066371;28;20514;-71
2023/12/27 07:48:21;;;;;;;55.70;2.30;;;;;;;;;;5066437;28;20527;-71
2023/12/27 07:50:48;;;;;;;55.67;2.80;;;;;;;;;;5065015;28;21047;-71
2023/12/27 07:53:16;;;;;;;55.80;2.63;;;;;;;;;;5066336;28;20490;-71
2023/12/27 07:55:43;;;;;;;55.87;2.63;;;;;;;;;;5066113;28;20459;-70
2023/12/27 07:58:10;;;;;;;56.00;2.63;;;;;;;;;;5066067;28;20447;-70
2023/12/27 08:00:37;;;;;;;55.77;2.40;;;;;;;;;;5066102;28;20456;-71
2023/12/27 08:03:08;;;;;;;56.47;2.60;;;;;;;;;;5062020;28;20464;-70
2023/12/27 08:05:35;;;;;;;55.60;2.87;;;;;;;;;;5045701;28;20490;-70
2023/12/27 08:08:03;;;;;;;55.70;2.30;;;;;;;;;;5046131;28;20460;-71
2023/12/27 08:10:32;;;;;;;55.67;2.50;;;;;;;;;;5045948;28;20491;-70
2023/12/27 08:12:59;;;;;;;56.07;2.83;;;;;;;;;;5045964;28;20502;-70
2023/12/27 08:15:26;;;;;;;55.77;2.40;;;;;;;;;;5045761;28;20450;-71
2023/12/27 08:17:54;;;;;;;55.67;2.47;;;;;;;;;;5045544;28;20457;-71
2023/12/27 08:20:21;;;;;;;56.30;2.90;;;;;;;;;;5045352;28;20534;-71
2023/12/27 08:22:48;;;;;;;55.77;2.47;;;;;;;;;;5045797;28;20595;-71
2023/12/27 08:25:15;;;;;;;55.40;2.33;;;;;;;;;;5045971;28;20460;-71
2023/12/27 08:27:44;;;;;;;55.67;2.90;;;;;;;;;;5045520;28;20558;-69
2023/12/27 08:30:11;;;;;;;55.90;2.77;;;;;;;;;;5045448;28;20547;-70
2023/12/27 08:32:38;;;;;;;55.90;2.47;;;;;;;;;;5045643;28;20507;-71
2023/12/27 08:35:06;;;;;;;59.40;2.97;;;;;;;;;;5045182;28;20447;-71
2023/12/27 08:37:33;;;;;;;55.77;2.50;;;;;;;;;;5045704;28;20456;-72
2023/12/27 08:40:00;;;;;;;56.30;3.10;;;;;;;;;;5045368;28;20898;-71
2023/12/27 08:42:27;;;;;;;55.83;2.63;;;;;;;;;;5044596;28;20536;-71
2023/12/27 08:44:56;;;;;;;55.67;2.80;;;;;;;;;;5044472;28;20539;-71
2023/12/27 08:47:23;;;;;;;55.37;2.50;;;;;;;;;;5044506;28;20444;-71
2023/12/27 08:49:50;;;;;;;55.90;2.60;;;;;;;;;;5044440;28;20867;-71
2023/12/27 08:52:18;;;;;;;55.67;2.53;;;;;;;;;;5044686;28;20521;-71
2023/12/27 08:54:45;;;;;;;56.27;2.63;;;;;;;;;;5044754;28;20522;-71
2023/12/27 08:57:12;;;;;;;55.47;2.33;;;;;;;;;;5044947;28;20456;-71
2023/12/27 08:59:39;;;;;;;55.90;3.43;;;;;;;;;;5044663;28;20464;-71
2023/12/27 09:02:07;;;;;;;55.47;2.30;;;;;;;;;;5043856;28;20466;-71
2023/12/27 09:04:34;;;;;;;55.87;2.40;;;;;;;;;;5043209;28;20553;-71
2023/12/27 09:07:02;;;;;;;55.73;2.43;;;;;;;;;;5044463;28;20932;-70
2023/12/27 09:09:29;;;;;;;55.77;2.80;;;;;;;;;;5044413;28;20468;-72
2023/12/27 09:11:56;;;;;;;55.60;2.50;;;;;;;;;;5044391;28;20456;-72
2023/12/27 09:14:23;;;;;;;55.47;2.40;;;;;;;;;;5044310;28;20519;-72
2023/12/27 09:16:51;;;;;;;55.30;2.00;;;;;;;;;;5044101;28;20462;-71
2023/12/27 09:19:19;;;;;;;55.40;2.30;;;;;;;;;;5042490;28;20534;-71
2023/12/27 09:21:46;;;;;;;55.37;2.20;;;;;;;;;;5044525;28;20456;-72
2023/12/27 09:24:14;;;;;;;55.50;2.30;;;;;;;;;;5044141;28;20461;-71
2023/12/27 09:26:41;;;;;;;56.20;2.70;;;;;;;;;;5043296;28;20718;-71
2023/12/27 09:29:10;;;;;;;56.10;2.83;;;;;;;;;;5042340;28;20456;-72
2023/12/27 09:31:37;;;;;;;55.80;2.33;;;;;;;;;;5042371;28;20491;-71
2023/12/27 09:34:04;;;;;;;55.70;2.30;;;;;;;;;;5042109;28;20471;-70
2023/12/27 09:36:33;;;;;;;55.33;2.03;;;;;;;;;;5043755;28;20948;-71
2023/12/27 09:39:00;;;;;;;55.50;2.10;;;;;;;;;;5042883;28;20458;-71
2023/12/27 09:41:27;;;;;;;55.37;1.93;;;;;;;;;;5043265;28;20522;-72
2023/12/27 09:43:55;;;;;;;55.43;1.80;;;;;;;;;;5043222;28;20570;-71
2023/12/27 09:46:23;;;;;;;55.40;2.20;;;;;;;;;;5043401;28;20455;-70
2023/12/27 09:48:51;;;;;;;55.20;1.90;;;;;;;;;;5043712;28;20515;-72
2023/12/27 09:51:23;;;;;;;55.20;1.73;;;;;;;;;;5043782;28;20899;-72
2023/12/27 09:53:51;;;;;;;55.47;2.27;;;;;;;;;;5043688;28;20507;-71
2023/12/27 09:56:19;;;;;;;55.30;2.00;;;;;;;;;;5044161;28;20456;-72
2023/12/27 09:58:47;;;;;;;55.60;2.30;;;;;;;;;;5044206;28;20870;-72
2023/12/27 10:01:14;;;;;;;55.23;1.80;;;;;;;;;;5056107;28;20448;-72
2023/12/27 10:03:43;;;;;;;56.20;2.83;;;;;;;;;;5064523;28;20497;-72
2023/12/27 10:06:18;;;;;;;54.87;1.80;;;;;;;;;;5064886;28;20490;-72
2023/12/27 10:08:45;;;;;;;55.27;2.00;;;;;;;;;;5064520;28;20538;-71
2023/12/27 10:11:13;;;;;;;55.70;1.90;;;;;;;;;;5063660;28;20482;-72
2023/12/27 10:13:42;;;;;;;55.63;1.90;;;;;;;;;;5065469;28;20485;-72
2023/12/27 10:16:09;;;;;;;55.93;2.20;;;;;;;;;;5067482;28;20452;-70
2023/12/27 10:18:36;;;;;;;56.00;2.20;;;;;;;;;;5067255;28;20449;-72
2023/12/27 10:21:04;;;;;;;56.20;2.37;;;;;;;;;;5065967;28;20950;-71
2023/12/27 10:23:34;;;;;;;56.47;2.40;;;;;;;;;;5065732;28;20475;-71
2023/12/27 10:26:01;;;;;;;56.07;2.20;;;;;;;;;;5064099;28;20466;-72
2023/12/27 10:28:29;;;;;;;55.90;2.00;;;;;;;;;;5065257;28;20480;-69
2023/12/27 10:30:56;;;;;;;55.80;2.10;;;;;;;;;;5063906;28;20550;-69
2023/12/27 10:33:24;;;;;;;56.00;2.10;;;;;;;;;;5062574;28;20485;-69
2023/12/27 10:35:51;;;;;;;55.83;2.10;;;;;;;;;;5063110;28;20903;-72
2023/12/27 10:38:18;;;;;;;57.03;2.20;;;;;;;;;;5063767;28;20450;-72
2023/12/27 10:40:45;;;;;;;55.93;1.97;;;;;;;;;;5062724;28;20524;-70
2023/12/27 10:43:12;;;;;;;56.07;2.33;;;;;;;;;;5063351;28;20461;-72
2023/12/27 10:45:41;;;;;;;55.87;2.20;;;;;;;;;;5064099;28;20450;-70
2023/12/27 10:48:10;;;;;;;56.17;2.30;;;;;;;;;;5063947;28;20540;-71
2023/12/27 10:50:37;;;;;;;55.93;1.90;;;;;;;;;;5062007;28;20482;-72
2023/12/27 10:53:06;;;;;;;56.23;2.17;;;;;;;;;;5061689;28;20477;-72
2023/12/27 10:55:33;;;;;;;56.10;2.13;;;;;;;;;;5063280;28;20944;-72
2023/12/27 10:58:02;;;;;;;56.03;2.20;;;;;;;;;;5061290;28;20558;-68
2023/12/27 11:00:31;;;;;;;55.93;1.93;;;;;;;;;;5056739;28;20451;-69
2023/12/27 11:02:59;;;;;;;55.90;1.90;;;;;;;;;;5062383;28;20476;-70
2023/12/27 11:05:28;;;;;;;55.90;1.90;;;;;;;;;;5062829;28;20545;-71
2023/12/27 11:07:55;;;;;;;55.90;1.83;;;;;;;;;;5063274;28;20456;-71
2023/12/27 11:10:24;;;;;;;55.80;2.00;;;;;;;;;;5063701;28;20520;-70
2023/12/27 11:12:52;;;;;;;55.77;2.30;;;;;;;;;;5064110;28;20465;-69
2023/12/27 11:15:19;;;;;;;55.70;1.77;;;;;;;;;;5064801;28;20522;-71
2023/12/27 11:17:46;;;;;;;56.10;1.80;;;;;;;;;;5065109;28;20462;-68
2023/12/27 11:20:16;;;;;;;56.07;2.07;;;;;;;;;;5064605;28;20562;-71
2023/12/27 11:22:44;;;;;;;55.73;1.80;;;;;;;;;;5064795;28;20474;-70
2023/12/27 11:25:13;;;;;;;56.07;1.97;;;;;;;;;;5064156;28;20549;-71
2023/12/27 11:27:41;;;;;;;56.90;1.80;;;;;;;;;;5064947;28;20460;-70
2023/12/27 11:30:11;;;;;;;56.80;2.10;;;;;;;;;;5064367;28;20532;-69
2023/12/27 11:32:40;;;;;;;55.67;1.90;;;;;;;;;;5064760;28;20475;-70
2023/12/27 11:35:08;;;;;;;55.63;1.80;;;;;;;;;;5065641;28;20517;-70
2023/12/27 11:37:37;;;;;;;55.77;2.00;;;;;;;;;;5066104;28;20508;-71
2023/12/27 11:40:04;;;;;;;55.80;2.00;;;;;;;;;;5065363;28;20512;-71
2023/12/27 11:42:32;;;;;;;55.70;2.00;;;;;;;;;;5066071;28;20696;-71
2023/12/27 11:44:59;;;;;;;55.57;1.80;;;;;;;;;;5067967;28;20539;-70
2023/12/27 11:47:28;;;;;;;55.57;1.97;;;;;;;;;;5068660;28;20445;-71
2023/12/27 11:50:14;;;;;;;55.33;1.70;;;;;;;;;;5068394;28;20469;-71
2023/12/27 11:52:44;;;;;;;55.70;1.80;;;;;;;;;;5069388;28;20483;-69
2023/12/27 11:55:15;;;;;;;55.77;1.93;;;;;;;;;;5068864;28;20480;-70
2023/12/27 11:57:42;;;;;;;56.30;2.40;;;;;;;;;;5068333;28;20449;-70
2023/12/27 12:00:10;;;;;;;55.97;2.20;;;;;;;;;;5067898;28;20486;-70
2023/12/27 12:02:37;;;;;;;55.87;1.93;;;;;;;;;;5065412;28;20474;-68
2023/12/27 12:05:08;;;;;;;56.20;2.00;;;;;;;;;;5064475;28;20470;-71
2023/12/27 12:07:52;;;;;;;55.97;1.77;;;;;;;;;;5067532;28;20548;-71
2023/12/27 12:10:23;;;;;;;55.73;2.10;;;;;;;;;;5067567;28;20543;-69
2023/12/27 12:12:51;;;;;;;55.63;2.00;;;;;;;;;;5066893;28;20542;-71
2023/12/27 12:15:20;;;;;;;55.67;1.80;;;;;;;;;;5067059;28;20454;-71
2023/12/27 12:17:48;;;;;;;55.50;1.93;;;;;;;;;;5067743;28;20479;-69
2023/12/27 12:20:16;;;;;;;55.67;2.00;;;;;;;;;;5067914;28;20460;-70
2023/12/27 12:22:43;;;;;;;55.67;1.90;;;;;;;;;;5066546;28;20482;-70
2023/12/27 12:25:12;;;;;;;55.53;1.83;;;;;;;;;;5067980;28;20476;-71
2023/12/27 12:27:43;;;;;;;55.83;2.07;;;;;;;;;;5067218;28;20558;-70
2023/12/27 12:30:11;;;;;;;55.53;1.80;;;;;;;;;;5066418;28;20458;-71
2023/12/27 12:32:41;;;;;;;55.47;1.60;;;;;;;;;;5066186;28;20610;-70
2023/12/27 12:35:09;;;;;;;55.77;1.83;;;;;;;;;;5066231;28;20501;-70
2023/12/27 12:37:37;;;;;;;56.47;1.90;;;;;;;;;;5066796;28;20455;-71
2023/12/27 12:40:06;;;;;;;63.43;2.50;;;;;;;;;;5067013;28;20456;-71
2023/12/27 12:42:34;;;;;;;55.47;1.90;;;;;;;;;;5067150;28;20474;-71
2023/12/27 12:45:03;;;;;;;56.40;2.30;;;;;;;;;;5065897;28;20517;-70
2023/12/27 12:47:30;;;;;;;55.77;1.73;;;;;;;;;;5066326;28;20458;-71
2023/12/27 12:49:57;;;;;;;55.80;2.00;;;;;;;;;;5067034;28;20534;-71
2023/12/27 12:52:24;;;;;;;55.83;2.00;;;;;;;;;;5066655;28;20578;-71
2023/12/27 12:54:51;;;;;;;55.80;1.90;;;;;;;;;;5066946;28;20461;-72
2023/12/27 12:57:18;;;;;;;55.73;1.80;;;;;;;;;;5066808;28;20537;-69
2023/12/27 12:59:48;;;;;;;55.63;1.80;;;;;;;;;;5067232;28;20514;-72
2023/12/27 13:02:15;;;;;;;55.97;2.53;;;;;;;;;;5066401;28;20501;-69
2023/12/27 13:04:43;;;;;;;56.10;1.97;;;;;;;;;;5066913;28;20498;-71
2023/12/27 13:07:11;;;;;;;55.67;2.00;;;;;;;;;;5067022;28;20733;-72
2023/12/27 13:09:57;;;;;;;55.80;1.73;;;;;;;;;;5067344;28;20446;-70
2023/12/27 13:12:25;;;;;;;55.90;2.00;;;;;;;;;;5067377;28;20486;-69
2023/12/27 13:14:53;;;;;;;55.73;2.03;;;;;;;;;;5068841;28;20566;-72
2023/12/27 13:17:21;;;;;;;55.67;2.10;;;;;;;;;;5067011;28;20469;-72
2023/12/27 13:19:48;;;;;;;55.90;1.90;;;;;;;;;;5067043;28;20540;-72
2023/12/27 13:22:15;;;;;;;58.60;1.80;;;;;;;;;;5066058;28;20470;-71
2023/12/27 13:24:43;;;;;;;55.83;1.90;;;;;;;;;;5066526;28;20517;-72
2023/12/27 13:27:10;;;;;;;55.87;1.97;;;;;;;;;;5066795;28;20465;-72
2023/12/27 13:29:37;;;;;;;56.30;2.30;;;;;;;;;;5066829;28;20478;-71
2023/12/27 13:32:06;;;;;;;55.90;1.90;;;;;;;;;;5066180;28;20882;-72
2023/12/27 13:34:33;;;;;;;56.07;2.30;;;;;;;;;;5066134;28;20503;-72
2023/12/27 13:37:00;;;;;;;56.00;2.20;;;;;;;;;;5066408;28;20464;-72
2023/12/27 13:39:27;;;;;;;55.67;2.00;;;;;;;;;;5066017;28;20508;-71
2023/12/27 13:41:55;;;;;;;55.77;2.07;;;;;;;;;;5066583;28;20480;-71
2023/12/27 13:44:22;;;;;;;57.13;2.10;;;;;;;;;;5067109;28;20450;-71
2023/12/27 13:46:49;;;;;;;65.03;2.50;;;;;;;;;;5067751;28;20459;-71
2023/12/27 13:49:18;;;;;;;55.90;1.90;;;;;;;;;;5072781;28;20491;-72
2023/12/27 13:51:45;;;;;;;55.87;1.90;;;;;;;;;;5073188;28;20575;-71
2023/12/27 13:54:12;;;;;;;56.30;2.77;;;;;;;;;;5073000;28;20907;-72
2023/12/27 13:56:39;;;;;;;56.10;1.90;;;;;;;;;;5073242;28;20476;-72
2023/12/27 13:59:07;;;;;;;56.27;2.70;;;;;;;;;;5073270;28;20506;-72
2023/12/27 14:01:39;;;;;;;55.60;1.70;;;;;;;;;;5073573;28;20495;-72
2023/12/27 14:04:07;;;;;;;55.87;2.00;;;;;;;;;;5072864;28;20813;-72
2023/12/27 14:06:37;;;;;;;56.20;2.40;;;;;;;;;;5072556;28;20486;-72
2023/12/27 14:09:04;;;;;;;56.20;2.20;;;;;;;;;;5073025;28;20917;-71
2023/12/27 14:11:32;;;;;;;55.87;1.80;;;;;;;;;;5072825;28;20484;-71
2023/12/27 14:13:59;;;;;;;56.07;1.83;;;;;;;;;;5072667;28;20492;-72
2023/12/27 14:16:26;;;;;;;55.73;1.90;;;;;;;;;;5073267;28;20444;-71
2023/12/27 14:18:54;;;;;;;55.77;1.93;;;;;;;;;;5073417;28;20444;-72
2023/12/27 14:21:22;;;;;;;55.70;1.90;;;;;;;;;;5072849;28;20451;-70
2023/12/27 14:23:51;;;;;;;55.90;1.80;;;;;;;;;;5071294;28;20467;-72
2023/12/27 14:26:18;;;;;;;55.87;1.73;;;;;;;;;;5071885;28;20470;-71
2023/12/27 14:28:45;;;;;;;55.87;1.87;;;;;;;;;;5071727;28;20483;-72
2023/12/27 14:31:16;;;;;;;56.20;2.50;;;;;;;;;;5073553;28;20483;-71
2023/12/27 14:33:44;;;;;;;55.83;2.07;;;;;;;;;;5072715;28;20499;-72